createdAt,value
2018-07-03T00:01:51.238Z,15.59
2018-07-03T00:04:22.239Z,15.56
2018-07-03T00:06:52.423Z,15.52
2018-07-03T00:09:23.103Z,15.38
2018-07-03T00:11:53.128Z,15.46
2018-07-03T00:14:23.388Z,15.39
2018-07-03T00:16:58.804Z,15.13
2018-07-03T00:19:28.897Z,15.05
2018-07-03T00:21:58.910Z,15.19
2018-07-03T00:24:29.661Z,15.12
2018-07-03T00:26:59.728Z,15.07
2018-07-03T00:29:29.305Z,15.02
2018-07-03T00:31:59.907Z,14.99
2018-07-03T00:34:29.556Z,14.99
2018-07-03T00:36:59.843Z,14.99
2018-07-03T00:39:31.402Z,14.97
2018-07-03T00:42:00.956Z,14.94
2018-07-03T00:44:31.068Z,14.91
2018-07-03T00:47:01.558Z,14.88
2018-07-03T00:49:31.150Z,14.83
2018-07-03T00:52:01.211Z,14.79
2018-07-03T00:54:31.611Z,14.78
2018-07-03T00:57:01.628Z,14.72
2018-07-03T00:59:31.887Z,14.70
2018-07-03T01:02:02.516Z,14.66
2018-07-03T01:04:32.467Z,14.63
2018-07-03T01:07:02.621Z,14.58
2018-07-03T01:09:32.984Z,14.57
2018-07-03T01:12:03.849Z,14.55
2018-07-03T01:14:34.215Z,14.51
2018-07-03T01:17:05.067Z,14.49
2018-07-03T01:19:36.096Z,14.45
2018-07-03T01:22:06.607Z,13.54
2018-07-03T01:24:37.996Z,14.40
2018-07-03T01:27:08.110Z,14.36
2018-07-03T01:29:38.569Z,14.34
2018-07-03T01:32:09.464Z,14.29
2018-07-03T01:34:39.987Z,14.27
2018-07-03T01:37:10.584Z,14.02
2018-07-03T01:39:41.719Z,14.15
2018-07-03T01:42:12.160Z,14.11
2018-07-03T01:44:43.064Z,14.06
2018-07-03T01:47:14.062Z,14.01
2018-07-03T01:49:44.534Z,13.96
2018-07-03T01:52:14.848Z,13.84
2018-07-03T01:54:45.072Z,13.72
2018-07-03T01:57:15.164Z,13.60
2018-07-03T01:59:45.482Z,13.48
2018-07-03T02:02:15.970Z,13.41
2018-07-03T02:04:45.998Z,13.35
2018-07-03T02:07:16.032Z,13.26
2018-07-03T02:09:46.981Z,13.18
2018-07-03T02:12:17.018Z,13.10
2018-07-03T02:14:47.352Z,13.00
2018-07-03T02:17:17.828Z,12.89
2018-07-03T02:19:47.848Z,12.77
2018-07-03T02:22:18.147Z,12.67
2018-07-03T02:24:49.212Z,12.56
2018-07-03T02:27:19.813Z,11.95
2018-07-03T02:29:51.056Z,12.46
2018-07-03T02:32:21.502Z,12.49
2018-07-03T02:34:51.881Z,12.45
2018-07-03T02:37:22.513Z,12.36
2018-07-03T02:39:53.829Z,12.52
2018-07-03T02:42:24.396Z,12.53
2018-07-03T02:44:54.863Z,12.52
2018-07-03T02:47:25.497Z,12.55
2018-07-03T02:49:55.901Z,12.50
2018-07-03T02:52:26.415Z,12.29
2018-07-03T02:54:58.020Z,12.42
2018-07-03T02:57:28.938Z,12.40
2018-07-03T02:59:59.484Z,11.72
2018-07-03T03:02:30.427Z,12.33
2018-07-03T03:05:00.562Z,12.33
2018-07-03T03:07:31.040Z,12.33
2018-07-03T03:10:01.435Z,12.38
2018-07-03T03:12:31.869Z,12.39
2018-07-03T03:15:01.909Z,12.40
2018-07-03T03:17:32.085Z,12.19
2018-07-03T03:20:02.764Z,12.36
2018-07-03T03:22:33.363Z,12.33
2018-07-03T03:25:03.437Z,11.17
2018-07-03T03:27:34.336Z,12.31
2018-07-03T03:30:05.037Z,12.31
2018-07-03T03:32:38.938Z,12.13
2018-07-03T03:35:11.533Z,12.27
2018-07-03T03:37:41.736Z,11.81
2018-07-03T03:40:12.156Z,12.27
2018-07-03T03:42:42.686Z,12.25
2018-07-03T03:45:13.176Z,12.24
2018-07-03T03:47:43.221Z,11.98
2018-07-03T03:50:13.276Z,12.26
2018-07-03T03:52:43.828Z,12.26
2018-07-03T03:55:14.657Z,12.27
2018-07-03T03:57:44.758Z,12.30
2018-07-03T04:00:15.262Z,12.33
2018-07-03T04:02:46.029Z,12.35
2018-07-03T04:05:16.133Z,12.39
2018-07-03T04:07:46.259Z,12.43
2018-07-03T04:10:16.812Z,12.28
2018-07-03T04:12:47.488Z,12.35
2018-07-03T04:15:17.982Z,12.44
2018-07-03T04:17:48.364Z,12.40
2018-07-03T04:20:18.537Z,12.36
2018-07-03T04:22:49.000Z,12.36
2018-07-03T04:25:19.650Z,12.38
2018-07-03T04:27:50.077Z,12.37
2018-07-03T04:30:20.152Z,12.38
2018-07-03T04:32:50.520Z,12.39
2018-07-03T04:35:20.580Z,12.42
2018-07-03T04:37:50.972Z,12.27
2018-07-03T04:40:21.944Z,12.53
2018-07-03T04:42:52.017Z,12.60
2018-07-03T04:45:22.528Z,12.66
2018-07-03T04:47:52.905Z,12.75
2018-07-03T04:50:22.985Z,12.82
2018-07-03T04:52:53.557Z,12.86
2018-07-03T04:55:23.949Z,12.81
2018-07-03T04:57:54.100Z,12.98
2018-07-03T05:00:24.153Z,12.94
2018-07-03T05:02:54.430Z,13.06
2018-07-03T05:05:24.630Z,11.79
2018-07-03T05:07:55.217Z,13.14
2018-07-03T05:10:25.642Z,13.18
2018-07-03T05:12:56.188Z,13.19
2018-07-03T05:15:26.253Z,13.20
2018-07-03T05:17:57.104Z,13.21
2018-07-03T05:20:28.061Z,13.25
2018-07-03T05:22:58.574Z,13.32
2018-07-03T05:25:28.936Z,13.36
2018-07-03T05:27:59.633Z,13.45
2018-07-03T05:30:30.121Z,13.50
2018-07-03T05:33:06.876Z,13.54
2018-07-03T05:35:37.244Z,13.64
2018-07-03T05:38:08.025Z,13.69
2018-07-03T05:40:38.453Z,13.67
2018-07-03T05:43:09.126Z,13.86
2018-07-03T05:45:40.410Z,13.95
2018-07-03T05:48:11.845Z,14.03
2018-07-03T05:50:42.234Z,14.11
2018-07-03T05:53:12.994Z,14.18
2018-07-03T05:55:43.418Z,14.22
2018-07-03T05:58:13.738Z,14.32
2018-07-03T06:00:44.553Z,14.39
2018-07-03T06:03:15.029Z,14.48
2018-07-03T06:05:45.099Z,14.58
2018-07-03T06:08:16.125Z,14.65
2018-07-03T06:10:46.285Z,14.75
2018-07-03T06:13:16.900Z,14.87
2018-07-03T06:15:47.246Z,14.96
2018-07-03T06:18:17.368Z,15.03
2018-07-03T06:20:47.361Z,15.19
2018-07-03T06:23:17.673Z,15.21
2018-07-03T06:25:47.729Z,15.57
2018-07-03T06:28:18.316Z,15.70
2018-07-03T06:30:49.167Z,15.83
2018-07-03T06:33:19.261Z,15.60
2018-07-03T06:35:49.321Z,16.02
2018-07-03T06:38:20.017Z,16.14
2018-07-03T06:40:50.192Z,16.32
2018-07-03T06:43:20.712Z,16.38
2018-07-03T06:45:51.568Z,16.55
2018-07-03T06:48:21.689Z,16.60
2018-07-03T06:50:52.481Z,16.63
2018-07-03T06:53:26.697Z,16.54
2018-07-03T06:55:57.529Z,16.84
2018-07-03T06:58:27.839Z,17.17
2018-07-03T07:00:57.940Z,17.42
2018-07-03T07:03:30.341Z,17.54
2018-07-03T07:06:00.862Z,17.56
2018-07-03T07:08:31.012Z,17.89
2018-07-03T07:11:01.464Z,18.23
2018-07-03T07:13:34.553Z,18.64
2018-07-03T07:16:04.956Z,18.90
2018-07-03T07:18:35.029Z,19.79
2018-07-03T07:21:05.132Z,20.22
2018-07-03T07:23:35.536Z,20.76
2018-07-03T07:26:05.717Z,21.01
2018-07-03T07:28:36.681Z,20.72
2018-07-03T07:31:07.002Z,21.49
2018-07-03T07:33:37.049Z,21.78
2018-07-03T07:36:07.353Z,21.93
2018-07-03T07:38:37.717Z,22.26
2018-07-03T07:41:07.806Z,22.66
2018-07-03T07:43:37.924Z,23.00
2018-07-03T07:46:08.261Z,23.38
2018-07-03T07:48:38.307Z,23.83
2018-07-03T07:51:08.705Z,24.17
2018-07-03T07:53:39.053Z,24.25
2018-07-03T07:56:09.121Z,24.39
2018-07-03T07:58:39.177Z,24.46
2018-07-03T08:01:09.916Z,24.65
2018-07-03T08:03:40.025Z,24.73
2018-07-03T08:06:10.257Z,24.98
2018-07-03T08:08:40.561Z,25.13
2018-07-03T08:11:11.033Z,25.21
2018-07-03T08:13:41.065Z,25.29
2018-07-03T08:16:11.430Z,25.46
2018-07-03T08:18:41.464Z,25.77
2018-07-03T08:21:11.968Z,25.95
2018-07-03T08:23:43.319Z,26.07
2018-07-03T08:26:13.839Z,26.27
2018-07-03T08:28:43.884Z,26.44
2018-07-03T08:31:14.225Z,26.43
2018-07-03T08:33:44.284Z,26.65
2018-07-03T08:36:14.305Z,26.80
2018-07-03T08:38:45.078Z,27.07
2018-07-03T08:41:15.136Z,27.29
2018-07-03T08:43:45.196Z,27.51
2018-07-03T08:46:15.644Z,27.93
2018-07-03T08:48:45.989Z,28.18
2018-07-03T08:51:15.991Z,28.31
2018-07-03T08:53:46.887Z,28.33
2018-07-03T08:56:16.986Z,28.15
2018-07-03T08:58:47.392Z,28.04
2018-07-03T09:01:17.808Z,27.83
2018-07-03T09:03:49.355Z,27.93
2018-07-03T09:06:19.793Z,28.21
2018-07-03T09:08:50.060Z,28.36
2018-07-03T09:11:23.043Z,28.66
2018-07-03T09:13:53.129Z,28.84
2018-07-03T09:16:23.673Z,28.99
2018-07-03T09:18:54.057Z,29.20
2018-07-03T09:21:24.168Z,29.44
2018-07-03T09:23:54.579Z,29.39
2018-07-03T09:26:24.648Z,29.47
2018-07-03T09:28:54.941Z,29.42
2018-07-03T09:31:25.289Z,29.59
2018-07-03T09:33:55.402Z,29.76
2018-07-03T09:36:25.510Z,29.97
2018-07-03T09:38:55.917Z,30.09
2018-07-03T09:41:25.944Z,30.17
2018-07-03T09:43:55.996Z,30.25
2018-07-03T09:46:26.556Z,30.30
2018-07-03T09:48:56.668Z,30.35
2018-07-03T09:51:26.808Z,30.52
2018-07-03T09:53:57.685Z,30.55
2018-07-03T09:56:27.713Z,30.74
2018-07-03T09:58:57.739Z,30.96
2018-07-03T10:01:28.102Z,31.17
2018-07-03T10:03:58.176Z,31.29
2018-07-03T10:06:28.264Z,31.47
2018-07-03T10:08:58.600Z,31.55
2018-07-03T10:11:28.671Z,31.72
2018-07-03T10:13:58.855Z,31.68
2018-07-03T10:16:33.030Z,31.62
2018-07-03T10:19:03.273Z,31.89
2018-07-03T10:21:37.029Z,32.12
2018-07-03T10:24:07.112Z,32.03
2018-07-03T10:26:38.350Z,32.19
2018-07-03T10:29:11.157Z,32.19
2018-07-03T10:31:48.750Z,32.31
2018-07-03T10:34:19.530Z,32.17
2018-07-03T10:36:49.658Z,32.36
2018-07-03T10:39:20.185Z,32.47
2018-07-03T10:41:50.549Z,32.54
2018-07-03T10:44:20.612Z,32.71
2018-07-03T10:46:50.685Z,32.65
2018-07-03T10:49:21.320Z,32.66
2018-07-03T10:51:51.463Z,32.84
2018-07-03T10:54:21.582Z,32.88
2018-07-03T10:56:52.325Z,32.91
2018-07-03T10:59:22.903Z,33.23
2018-07-03T11:01:54.329Z,33.39
2018-07-03T11:04:25.080Z,33.50
2018-07-03T11:06:55.416Z,33.48
2018-07-03T11:09:25.421Z,33.51
2018-07-03T11:11:55.813Z,33.50
2018-07-03T11:14:25.951Z,33.71
2018-07-03T11:16:56.095Z,33.78
2018-07-03T11:19:26.389Z,33.67
2018-07-03T11:21:56.548Z,33.71
2018-07-03T11:24:26.656Z,34.12
2018-07-03T11:26:57.315Z,34.43
2018-07-03T11:29:27.381Z,34.39
2018-07-03T11:31:57.457Z,34.08
2018-07-03T11:34:27.821Z,33.78
2018-07-03T11:36:57.914Z,33.93
2018-07-03T11:39:28.077Z,34.10
2018-07-03T11:41:58.523Z,34.29
2018-07-03T11:44:28.589Z,34.37
2018-07-03T11:46:58.649Z,34.19
2018-07-03T11:49:33.150Z,34.25
2018-07-03T11:52:03.653Z,34.40
2018-07-03T11:54:34.576Z,34.63
2018-07-03T11:57:04.670Z,34.54
2018-07-03T11:59:34.973Z,34.66
2018-07-03T12:02:05.517Z,34.72
2018-07-03T12:04:36.020Z,34.72
2018-07-03T12:07:06.130Z,34.93
2018-07-03T12:09:36.497Z,35.03
2018-07-03T12:12:06.844Z,34.89
2018-07-03T12:14:36.905Z,35.03
2018-07-03T12:17:07.377Z,34.83
2018-07-03T12:19:37.421Z,34.67
2018-07-03T12:22:07.624Z,34.44
2018-07-03T12:24:38.064Z,34.45
2018-07-03T12:27:08.428Z,34.14
2018-07-03T12:29:38.669Z,34.65
2018-07-03T12:32:09.166Z,35.10
2018-07-03T12:34:39.388Z,35.35
2018-07-03T12:37:09.613Z,35.43
2018-07-03T12:39:40.428Z,35.04
2018-07-03T12:42:11.642Z,34.90
2018-07-03T12:44:41.708Z,35.13
2018-07-03T12:47:12.149Z,35.28
2018-07-03T12:49:42.276Z,35.28
2018-07-03T12:52:12.325Z,35.47
2018-07-03T12:54:42.679Z,35.64
2018-07-03T12:57:13.162Z,35.76
2018-07-03T12:59:43.236Z,35.73
2018-07-03T13:02:13.708Z,35.51
2018-07-03T13:04:43.835Z,35.32
2018-07-03T13:07:13.908Z,35.22
2018-07-03T13:09:44.313Z,34.85
2018-07-03T13:12:14.402Z,34.58
2018-07-03T13:14:44.543Z,34.15
2018-07-03T13:17:15.413Z,33.87
2018-07-03T13:19:45.865Z,33.93
2018-07-03T13:22:16.023Z,33.93
2018-07-03T13:24:46.460Z,33.97
2018-07-03T13:27:16.600Z,33.89
2018-07-03T13:29:47.206Z,33.72
2018-07-03T13:32:17.598Z,33.76
2018-07-03T13:34:47.668Z,33.96
2018-07-03T13:37:17.902Z,34.05
2018-07-03T13:39:48.478Z,34.41
2018-07-03T13:42:18.734Z,34.40
2018-07-03T13:44:48.880Z,34.05
2018-07-03T13:47:19.220Z,33.85
2018-07-03T13:49:49.429Z,33.86
2018-07-03T13:52:19.475Z,34.03
2018-07-03T13:54:49.892Z,33.92
2018-07-03T13:57:20.164Z,33.93
2018-07-03T13:59:50.456Z,34.25
2018-07-03T14:02:20.960Z,34.28
2018-07-03T14:04:51.060Z,33.94
2018-07-03T14:07:21.153Z,33.81
2018-07-03T14:09:51.505Z,33.38
2018-07-03T14:12:21.616Z,32.95
2018-07-03T14:14:52.133Z,32.89
2018-07-03T14:17:22.714Z,32.86
2018-07-03T14:19:52.979Z,32.76
2018-07-03T14:22:23.081Z,33.04
2018-07-03T14:24:53.486Z,33.26
2018-07-03T14:27:23.570Z,32.96
2018-07-03T14:29:53.669Z,32.63
2018-07-03T14:32:24.017Z,32.55
2018-07-03T14:34:54.102Z,32.69
2018-07-03T14:37:25.095Z,32.90
2018-07-03T14:39:55.659Z,33.17
2018-07-03T14:42:25.685Z,33.39
2018-07-03T14:44:55.787Z,33.60
2018-07-03T14:47:26.160Z,33.55
2018-07-03T14:49:56.213Z,33.67
2018-07-03T14:52:26.247Z,33.72
2018-07-03T14:54:56.718Z,33.73
2018-07-03T14:57:26.811Z,33.21
2018-07-03T14:59:56.884Z,33.85
2018-07-03T15:02:27.477Z,34.01
2018-07-03T15:04:57.559Z,33.89
2018-07-03T15:07:27.661Z,33.61
2018-07-03T15:09:58.304Z,33.07
2018-07-03T15:12:28.361Z,32.73
2018-07-03T15:14:58.549Z,32.66
2018-07-03T15:17:28.868Z,32.93
2018-07-03T15:19:59.940Z,32.89
2018-07-03T15:22:30.837Z,32.76
2018-07-03T15:25:01.191Z,32.38
2018-07-03T15:27:31.407Z,32.43
2018-07-03T15:30:01.633Z,32.48
2018-07-03T15:32:32.252Z,32.56
2018-07-03T15:35:02.657Z,32.68
2018-07-03T15:37:32.798Z,32.60
2018-07-03T15:40:04.112Z,32.59
2018-07-03T15:42:35.765Z,32.70
2018-07-03T15:45:14.997Z,32.75
2018-07-03T15:47:45.332Z,32.68
2018-07-03T15:50:15.897Z,32.48
2018-07-03T15:52:45.960Z,32.32
2018-07-03T15:55:16.018Z,32.17
2018-07-03T15:57:47.032Z,31.97
2018-07-03T16:00:17.077Z,32.05
2018-07-03T16:05:03.970Z,32.11
2018-07-03T16:07:48.746Z,32.50
2018-07-03T16:10:19.241Z,32.61
2018-07-03T16:12:49.851Z,32.75
2018-07-03T16:15:19.910Z,32.81
2018-07-03T16:17:50.303Z,32.62
2018-07-03T16:20:25.185Z,32.29
2018-07-03T16:22:55.322Z,32.01
2018-07-03T16:25:25.944Z,31.89
2018-07-03T16:27:56.057Z,31.67
2018-07-03T16:30:26.125Z,31.03
2018-07-03T16:32:56.481Z,31.49
2018-07-03T16:35:26.674Z,31.38
2018-07-03T16:37:56.928Z,31.54
2018-07-03T16:40:27.245Z,31.50
2018-07-03T16:42:57.300Z,31.55
2018-07-03T16:45:27.444Z,31.60
2018-07-03T16:47:57.881Z,31.61
2018-07-03T16:50:28.025Z,31.57
2018-07-03T16:52:58.188Z,31.43
2018-07-03T16:55:28.577Z,31.47
2018-07-03T16:57:58.932Z,31.41
2018-07-03T17:00:29.597Z,31.33
2018-07-03T17:02:59.969Z,31.32
2018-07-03T17:05:30.108Z,31.31
2018-07-03T17:08:00.739Z,31.22
2018-07-03T17:10:31.921Z,30.75
2018-07-03T17:13:02.758Z,30.85
2018-07-03T17:15:32.969Z,31.35
2018-07-03T17:18:04.418Z,31.35
2018-07-03T17:20:34.712Z,31.36
2018-07-03T17:23:10.746Z,30.50
2018-07-03T17:25:42.083Z,31.25
2018-07-03T17:28:12.935Z,31.18
2018-07-03T17:30:44.548Z,31.19
2018-07-03T17:33:16.432Z,30.74
2018-07-03T17:35:47.383Z,31.22
2018-07-03T17:38:17.946Z,30.57
2018-07-03T17:40:58.186Z,30.61
2018-07-03T17:44:13.877Z,30.15
2018-07-03T17:46:44.113Z,30.96
2018-07-03T17:49:14.576Z,30.89
2018-07-03T17:51:44.753Z,30.85
2018-07-03T17:54:16.142Z,30.44
2018-07-03T17:56:46.612Z,30.78
2018-07-03T17:59:17.188Z,30.73
2018-07-03T18:01:47.317Z,30.76
2018-07-03T18:04:17.748Z,30.79
2018-07-03T18:06:47.928Z,30.83
2018-07-03T18:09:18.920Z,30.85
2018-07-03T18:11:49.141Z,30.88
2018-07-03T18:14:19.182Z,30.84
2018-07-03T18:16:49.399Z,30.75
2018-07-03T18:19:24.645Z,30.68
2018-07-03T18:21:54.796Z,30.67
2018-07-03T18:24:25.550Z,30.65
2018-07-03T18:26:56.108Z,30.58
2018-07-03T18:29:27.190Z,30.53
2018-07-03T18:31:57.791Z,30.47
2018-07-03T18:34:28.032Z,30.40
2018-07-03T18:36:58.229Z,30.18
2018-07-03T18:39:28.644Z,30.18
2018-07-03T18:41:58.852Z,29.92
2018-07-03T18:44:29.029Z,29.69
2018-07-03T18:46:59.933Z,29.46
2018-07-03T18:49:30.689Z,29.25
2018-07-03T18:52:00.856Z,29.06
2018-07-03T18:54:31.480Z,28.88
2018-07-03T18:57:01.699Z,28.73
2018-07-03T18:59:31.904Z,28.57
2018-07-03T19:02:02.573Z,28.42
2018-07-03T19:04:32.894Z,28.27
2018-07-03T19:07:03.072Z,28.15
2018-07-03T19:09:33.468Z,27.83
2018-07-03T19:12:03.841Z,27.89
2018-07-03T19:14:34.055Z,27.75
2018-07-03T19:17:04.568Z,27.58
2018-07-03T19:19:34.763Z,27.42
2018-07-03T19:22:04.976Z,27.26
2018-07-03T19:24:35.493Z,27.12
2018-07-03T19:27:05.905Z,26.97
2018-07-03T19:29:36.706Z,26.84
2018-07-03T19:32:07.345Z,26.70
2018-07-03T19:34:38.003Z,26.55
2018-07-03T19:37:08.224Z,26.41
2018-07-03T19:39:38.623Z,26.26
2018-07-03T19:42:10.035Z,25.96
2018-07-03T19:44:40.481Z,26.00
2018-07-03T19:47:11.222Z,25.88
2018-07-03T19:49:42.244Z,25.74
2018-07-03T19:52:12.628Z,25.59
2018-07-03T19:54:46.906Z,25.08
2018-07-03T19:57:17.280Z,25.32
2018-07-03T19:59:47.348Z,25.14
2018-07-03T20:02:17.553Z,24.99
2018-07-03T20:04:48.008Z,24.89
2018-07-03T20:07:18.037Z,24.78
2018-07-03T20:09:57.449Z,24.63
2018-07-03T20:12:27.921Z,23.64
2018-07-03T20:14:58.074Z,24.38
2018-07-03T20:17:28.948Z,24.30
2018-07-03T20:20:00.233Z,24.16
2018-07-03T20:22:30.365Z,24.13
2018-07-03T20:25:00.468Z,24.04
2018-07-03T20:27:31.045Z,23.96
2018-07-03T20:30:01.134Z,23.75
2018-07-03T20:32:37.496Z,23.66
2018-07-03T20:35:08.170Z,23.52
2018-07-03T20:37:55.099Z,23.40
2018-07-03T20:40:26.871Z,23.28
2018-07-03T20:42:58.028Z,23.03
2018-07-03T20:45:28.155Z,22.88
2018-07-03T20:47:58.472Z,23.06
2018-07-03T20:50:28.756Z,22.99
2018-07-03T20:52:58.877Z,22.88
2018-07-03T20:56:07.808Z,22.46
2018-07-03T20:58:38.296Z,22.64
2018-07-03T21:01:13.624Z,22.60
2018-07-03T21:03:44.157Z,22.52
2018-07-03T21:06:15.358Z,21.94
2018-07-03T21:08:45.228Z,22.39
2018-07-03T21:11:15.474Z,22.33
2018-07-03T21:13:45.217Z,22.27
2018-07-03T21:16:15.504Z,22.13
2018-07-03T21:18:45.574Z,22.15
2018-07-03T21:21:15.298Z,22.10
2018-07-03T21:23:45.989Z,22.03
2018-07-03T21:26:16.091Z,21.95
2018-07-03T21:28:45.894Z,21.75
2018-07-03T21:31:15.698Z,21.74
2018-07-03T21:33:45.730Z,21.64
2018-07-03T21:36:15.581Z,21.46
2018-07-03T21:38:45.293Z,21.47
2018-07-03T21:41:15.311Z,21.40
2018-07-03T21:43:45.055Z,21.30
2018-07-03T21:46:19.782Z,21.08
2018-07-03T21:48:49.813Z,20.80
2018-07-03T21:51:19.554Z,20.63
2018-07-03T21:53:49.332Z,20.58
2018-07-03T21:56:19.358Z,20.37
2018-07-03T21:58:49.681Z,20.40
2018-07-03T22:01:20.022Z,20.34
2018-07-03T22:03:50.117Z,20.28
2018-07-03T22:06:19.836Z,20.22
2018-07-03T22:08:50.149Z,20.07
2018-07-03T22:11:20.611Z,20.08
2018-07-03T22:13:50.911Z,20.03
2018-07-03T22:16:21.279Z,20.00
2018-07-03T22:18:51.535Z,19.97
2018-07-03T22:21:21.257Z,19.94
2018-07-03T22:23:51.337Z,19.89
2018-07-03T22:26:21.310Z,19.70
2018-07-03T22:28:51.002Z,19.79
2018-07-03T22:31:20.766Z,19.73
2018-07-03T22:33:51.669Z,19.64
2018-07-03T22:36:21.597Z,19.39
2018-07-03T22:38:51.342Z,19.32
2018-07-03T22:41:21.357Z,19.42
2018-07-03T22:43:51.134Z,19.38
2018-07-03T22:46:20.889Z,19.26
2018-07-03T22:48:51.554Z,19.30
2018-07-03T22:51:22.221Z,19.07
2018-07-03T22:53:53.154Z,19.11
2018-07-03T22:56:23.062Z,19.15
2018-07-03T22:58:52.925Z,19.02
